sensor_id;sensor_type;location;lat;lon;timestamp;P1;durP1;ratioP1;P2;durP2;ratioP2
65971;SDS011;52726;48.852;9.152;2022-12-24T00:00:35;3.45;;;1.08;;
65971;SDS011;52726;48.852;9.152;2022-12-24T00:03:01;3.33;;;0.80;;
65971;SDS011;52726;48.852;9.152;2022-12-24T00:05:28;3.00;;;0.95;;
65971;SDS011;52726;48.852;9.152;2022-12-24T00:07:54;1.55;;;0.65;;
65971;SDS011;52726;48.852;9.152;2022-12-24T00:10:25;6.63;;;1.27;;
65971;SDS011;52726;48.852;9.152;2022-12-24T00:12:50;2.20;;;0.93;;
65971;SDS011;52726;48.852;9.152;2022-12-24T00:15:16;4.90;;;1.30;;
65971;SDS011;52726;48.852;9.152;2022-12-24T00:17:41;6.68;;;1.60;;
65971;SDS011;52726;48.852;9.152;2022-12-24T00:20:07;6.15;;;1.35;;
65971;SDS011;52726;48.852;9.152;2022-12-24T00:22:33;6.68;;;1.15;;
65971;SDS011;52726;48.852;9.152;2022-12-24T00:24:58;2.47;;;1.10;;
65971;SDS011;52726;48.852;9.152;2022-12-24T00:27:23;3.58;;;1.25;;
65971;SDS011;52726;48.852;9.152;2022-12-24T00:29:49;6.15;;;1.90;;
65971;SDS011;52726;48.852;9.152;2022-12-24T00:32:14;6.25;;;1.52;;
65971;SDS011;52726;48.852;9.152;2022-12-24T00:34:39;4.50;;;1.20;;
65971;SDS011;52726;48.852;9.152;2022-12-24T00:37:05;7.22;;;1.40;;
65971;SDS011;52726;48.852;9.152;2022-12-24T00:39:31;12.48;;;1.85;;
65971;SDS011;52726;48.852;9.152;2022-12-24T00:41:57;4.03;;;0.98;;
65971;SDS011;52726;48.852;9.152;2022-12-24T00:44:22;3.58;;;1.20;;
65971;SDS011;52726;48.852;9.152;2022-12-24T00:46:48;6.50;;;1.40;;
65971;SDS011;52726;48.852;9.152;2022-12-24T00:49:13;3.20;;;1.50;;
65971;SDS011;52726;48.852;9.152;2022-12-24T00:51:39;13.38;;;2.13;;
65971;SDS011;52726;48.852;9.152;2022-12-24T00:54:04;10.40;;;1.20;;
65971;SDS011;52726;48.852;9.152;2022-12-24T00:56:30;6.00;;;1.75;;
65971;SDS011;52726;48.852;9.152;2022-12-24T00:58:55;9.60;;;1.55;;
65971;SDS011;52726;48.852;9.152;2022-12-24T01:01:21;3.75;;;0.95;;
65971;SDS011;52726;48.852;9.152;2022-12-24T01:03:46;3.33;;;1.13;;
65971;SDS011;52726;48.852;9.152;2022-12-24T01:06:16;10.15;;;1.20;;
65971;SDS011;52726;48.852;9.152;2022-12-24T01:08:44;6.28;;;1.38;;
65971;SDS011;52726;48.852;9.152;2022-12-24T01:11:10;4.18;;;1.33;;
65971;SDS011;52726;48.852;9.152;2022-12-24T01:13:36;3.60;;;1.17;;
65971;SDS011;52726;48.852;9.152;2022-12-24T01:16:02;5.55;;;1.60;;
65971;SDS011;52726;48.852;9.152;2022-12-24T01:18:28;3.05;;;1.10;;
65971;SDS011;52726;48.852;9.152;2022-12-24T01:20:54;4.35;;;1.35;;
65971;SDS011;52726;48.852;9.152;2022-12-24T01:23:21;3.40;;;1.13;;
65971;SDS011;52726;48.852;9.152;2022-12-24T01:25:46;5.70;;;1.30;;
65971;SDS011;52726;48.852;9.152;2022-12-24T01:28:12;4.07;;;1.30;;
65971;SDS011;52726;48.852;9.152;2022-12-24T01:30:37;3.42;;;1.33;;
65971;SDS011;52726;48.852;9.152;2022-12-24T01:33:04;2.92;;;1.45;;
65971;SDS011;52726;48.852;9.152;2022-12-24T01:35:30;5.85;;;1.40;;
65971;SDS011;52726;48.852;9.152;2022-12-24T01:37:55;5.28;;;1.48;;
65971;SDS011;52726;48.852;9.152;2022-12-24T01:40:21;11.25;;;2.05;;
65971;SDS011;52726;48.852;9.152;2022-12-24T01:43:10;5.85;;;1.58;;
65971;SDS011;52726;48.852;9.152;2022-12-24T01:50:45;1.52;;;0.88;;
65971;SDS011;52726;48.852;9.152;2022-12-24T01:53:11;5.60;;;1.30;;
65971;SDS011;52726;48.852;9.152;2022-12-24T01:55:38;10.02;;;1.65;;
65971;SDS011;52726;48.852;9.152;2022-12-24T01:58:07;10.57;;;1.55;;
65971;SDS011;52726;48.852;9.152;2022-12-24T02:00:34;5.65;;;1.90;;
65971;SDS011;52726;48.852;9.152;2022-12-24T02:03:00;7.97;;;1.45;;
65971;SDS011;52726;48.852;9.152;2022-12-24T02:05:27;7.28;;;2.15;;
65971;SDS011;52726;48.852;9.152;2022-12-24T02:07:56;4.70;;;1.42;;
65971;SDS011;52726;48.852;9.152;2022-12-24T02:10:23;6.53;;;1.58;;
65971;SDS011;52726;48.852;9.152;2022-12-24T02:12:48;11.23;;;1.67;;
65971;SDS011;52726;48.852;9.152;2022-12-24T02:15:18;8.85;;;1.27;;
65971;SDS011;52726;48.852;9.152;2022-12-24T02:24:00;4.85;;;1.50;;
65971;SDS011;52726;48.852;9.152;2022-12-24T02:31:24;5.28;;;1.73;;
65971;SDS011;52726;48.852;9.152;2022-12-24T02:34:02;8.40;;;1.17;;
65971;SDS011;52726;48.852;9.152;2022-12-24T02:36:32;7.82;;;1.08;;
65971;SDS011;52726;48.852;9.152;2022-12-24T02:39:07;7.47;;;1.40;;
65971;SDS011;52726;48.852;9.152;2022-12-24T02:41:37;5.25;;;1.17;;
65971;SDS011;52726;48.852;9.152;2022-12-24T02:44:26;7.03;;;1.75;;
65971;SDS011;52726;48.852;9.152;2022-12-24T02:46:54;4.63;;;1.60;;
65971;SDS011;52726;48.852;9.152;2022-12-24T02:49:21;7.10;;;1.77;;
65971;SDS011;52726;48.852;9.152;2022-12-24T02:51:46;10.02;;;2.35;;
65971;SDS011;52726;48.852;9.152;2022-12-24T02:54:12;3.00;;;1.35;;
65971;SDS011;52726;48.852;9.152;2022-12-24T03:04:56;9.52;;;1.80;;
65971;SDS011;52726;48.852;9.152;2022-12-24T03:07:44;5.97;;;2.17;;
65971;SDS011;52726;48.852;9.152;2022-12-24T03:10:29;7.18;;;1.17;;
65971;SDS011;52726;48.852;9.152;2022-12-24T03:13:15;6.63;;;2.03;;
65971;SDS011;52726;48.852;9.152;2022-12-24T03:15:43;6.35;;;1.77;;
65971;SDS011;52726;48.852;9.152;2022-12-24T03:18:10;11.80;;;1.92;;
65971;SDS011;52726;48.852;9.152;2022-12-24T03:20:41;16.60;;;1.80;;
65971;SDS011;52726;48.852;9.152;2022-12-24T03:23:09;6.10;;;1.98;;
65971;SDS011;52726;48.852;9.152;2022-12-24T03:25:37;7.25;;;1.70;;
65971;SDS011;52726;48.852;9.152;2022-12-24T03:28:05;7.50;;;1.58;;
65971;SDS011;52726;48.852;9.152;2022-12-24T03:30:33;8.07;;;1.52;;
65971;SDS011;52726;48.852;9.152;2022-12-24T03:32:59;4.60;;;1.50;;
65971;SDS011;52726;48.852;9.152;2022-12-24T03:35:24;16.20;;;2.25;;
65971;SDS011;52726;48.852;9.152;2022-12-24T03:37:50;9.07;;;2.00;;
65971;SDS011;52726;48.852;9.152;2022-12-24T03:40:16;9.50;;;1.40;;
65971;SDS011;52726;48.852;9.152;2022-12-24T03:42:41;3.53;;;1.00;;
65971;SDS011;52726;48.852;9.152;2022-12-24T03:45:07;4.90;;;1.33;;
65971;SDS011;52726;48.852;9.152;2022-12-24T03:47:33;6.28;;;1.45;;
65971;SDS011;52726;48.852;9.152;2022-12-24T03:49:58;5.50;;;1.50;;
65971;SDS011;52726;48.852;9.152;2022-12-24T03:52:23;5.60;;;1.85;;
65971;SDS011;52726;48.852;9.152;2022-12-24T03:54:49;6.43;;;1.10;;
65971;SDS011;52726;48.852;9.152;2022-12-24T03:57:14;7.03;;;1.20;;
65971;SDS011;52726;48.852;9.152;2022-12-24T03:59:39;9.30;;;1.50;;
65971;SDS011;52726;48.852;9.152;2022-12-24T04:02:05;6.90;;;1.15;;
65971;SDS011;52726;48.852;9.152;2022-12-24T04:04:30;11.70;;;1.85;;
65971;SDS011;52726;48.852;9.152;2022-12-24T04:06:57;7.75;;;1.98;;
65971;SDS011;52726;48.852;9.152;2022-12-24T04:09:23;5.15;;;1.55;;
65971;SDS011;52726;48.852;9.152;2022-12-24T04:11:48;3.55;;;1.08;;
65971;SDS011;52726;48.852;9.152;2022-12-24T04:14:13;2.45;;;1.15;;
65971;SDS011;52726;48.852;9.152;2022-12-24T04:16:39;4.72;;;1.42;;
65971;SDS011;52726;48.852;9.152;2022-12-24T04:19:04;7.50;;;1.80;;
65971;SDS011;52726;48.852;9.152;2022-12-24T04:21:29;3.88;;;1.35;;
65971;SDS011;52726;48.852;9.152;2022-12-24T04:23:54;7.70;;;1.88;;
65971;SDS011;52726;48.852;9.152;2022-12-24T04:26:20;8.65;;;1.95;;
65971;SDS011;52726;48.852;9.152;2022-12-24T04:28:45;12.90;;;1.85;;
65971;SDS011;52726;48.852;9.152;2022-12-24T04:31:13;7.30;;;1.70;;
65971;SDS011;52726;48.852;9.152;2022-12-24T04:33:40;11.48;;;2.10;;
65971;SDS011;52726;48.852;9.152;2022-12-24T04:36:06;6.20;;;1.33;;
65971;SDS011;52726;48.852;9.152;2022-12-24T04:38:32;10.73;;;1.75;;
65971;SDS011;52726;48.852;9.152;2022-12-24T04:40:59;3.95;;;1.50;;
65971;SDS011;52726;48.852;9.152;2022-12-24T04:43:29;6.88;;;1.13;;
65971;SDS011;52726;48.852;9.152;2022-12-24T04:45:55;7.78;;;1.35;;
65971;SDS011;52726;48.852;9.152;2022-12-24T04:48:21;10.68;;;1.60;;
65971;SDS011;52726;48.852;9.152;2022-12-24T04:50:46;8.70;;;1.80;;
65971;SDS011;52726;48.852;9.152;2022-12-24T04:53:11;7.72;;;1.38;;
65971;SDS011;52726;48.852;9.152;2022-12-24T04:55:42;9.15;;;1.75;;
65971;SDS011;52726;48.852;9.152;2022-12-24T04:58:08;3.10;;;1.65;;
65971;SDS011;52726;48.852;9.152;2022-12-24T05:00:34;9.10;;;1.80;;
65971;SDS011;52726;48.852;9.152;2022-12-24T05:02:59;6.80;;;1.83;;
65971;SDS011;52726;48.852;9.152;2022-12-24T05:05:24;8.23;;;1.67;;
65971;SDS011;52726;48.852;9.152;2022-12-24T05:07:50;6.10;;;1.60;;
65971;SDS011;52726;48.852;9.152;2022-12-24T05:10:15;8.82;;;1.65;;
65971;SDS011;52726;48.852;9.152;2022-12-24T05:12:40;8.20;;;1.30;;
65971;SDS011;52726;48.852;9.152;2022-12-24T05:15:06;13.07;;;3.05;;
65971;SDS011;52726;48.852;9.152;2022-12-24T05:17:31;8.45;;;1.83;;
65971;SDS011;52726;48.852;9.152;2022-12-24T05:19:56;5.60;;;1.88;;
65971;SDS011;52726;48.852;9.152;2022-12-24T05:22:22;3.58;;;1.42;;
65971;SDS011;52726;48.852;9.152;2022-12-24T05:25:07;4.57;;;1.38;;
65971;SDS011;52726;48.852;9.152;2022-12-24T05:27:52;6.88;;;1.40;;
65971;SDS011;52726;48.852;9.152;2022-12-24T05:30:18;6.43;;;1.42;;
65971;SDS011;52726;48.852;9.152;2022-12-24T05:32:44;6.93;;;1.52;;
65971;SDS011;52726;48.852;9.152;2022-12-24T05:35:09;4.43;;;1.17;;
65971;SDS011;52726;48.852;9.152;2022-12-24T05:37:34;7.05;;;1.80;;
65971;SDS011;52726;48.852;9.152;2022-12-24T05:40:00;9.07;;;2.15;;
65971;SDS011;52726;48.852;9.152;2022-12-24T05:42:25;8.02;;;2.03;;
65971;SDS011;52726;48.852;9.152;2022-12-24T05:44:51;6.07;;;1.75;;
65971;SDS011;52726;48.852;9.152;2022-12-24T05:47:16;6.15;;;1.55;;
65971;SDS011;52726;48.852;9.152;2022-12-24T05:49:41;5.57;;;1.50;;
65971;SDS011;52726;48.852;9.152;2022-12-24T05:52:06;8.15;;;1.45;;
65971;SDS011;52726;48.852;9.152;2022-12-24T05:54:32;6.45;;;1.58;;
65971;SDS011;52726;48.852;9.152;2022-12-24T05:56:57;6.85;;;1.70;;
65971;SDS011;52726;48.852;9.152;2022-12-24T05:59:22;5.68;;;1.70;;
65971;SDS011;52726;48.852;9.152;2022-12-24T06:01:48;5.13;;;1.13;;
65971;SDS011;52726;48.852;9.152;2022-12-24T06:04:13;1.55;;;1.13;;
65971;SDS011;52726;48.852;9.152;2022-12-24T06:06:38;7.43;;;1.83;;
65971;SDS011;52726;48.852;9.152;2022-12-24T06:09:04;7.50;;;1.67;;
65971;SDS011;52726;48.852;9.152;2022-12-24T06:11:29;7.10;;;1.58;;
65971;SDS011;52726;48.852;9.152;2022-12-24T06:13:54;5.55;;;1.55;;
65971;SDS011;52726;48.852;9.152;2022-12-24T06:16:20;5.55;;;1.13;;
65971;SDS011;52726;48.852;9.152;2022-12-24T06:18:47;7.72;;;1.42;;
65971;SDS011;52726;48.852;9.152;2022-12-24T06:21:12;8.30;;;1.77;;
65971;SDS011;52726;48.852;9.152;2022-12-24T06:23:39;7.90;;;1.52;;
65971;SDS011;52726;48.852;9.152;2022-12-24T06:26:06;10.75;;;1.58;;
65971;SDS011;52726;48.852;9.152;2022-12-24T06:28:34;5.38;;;1.50;;
65971;SDS011;52726;48.852;9.152;2022-12-24T06:31:01;2.97;;;1.17;;
65971;SDS011;52726;48.852;9.152;2022-12-24T06:33:27;3.78;;;1.30;;
65971;SDS011;52726;48.852;9.152;2022-12-24T06:35:53;8.75;;;1.83;;
65971;SDS011;52726;48.852;9.152;2022-12-24T06:38:18;2.80;;;1.10;;
65971;SDS011;52726;48.852;9.152;2022-12-24T06:40:44;5.57;;;1.48;;
65971;SDS011;52726;48.852;9.152;2022-12-24T06:43:10;8.00;;;1.52;;
65971;SDS011;52726;48.852;9.152;2022-12-24T06:45:37;6.00;;;1.60;;
65971;SDS011;52726;48.852;9.152;2022-12-24T06:48:02;6.35;;;1.55;;
65971;SDS011;52726;48.852;9.152;2022-12-24T06:50:28;9.15;;;1.70;;
65971;SDS011;52726;48.852;9.152;2022-12-24T06:52:54;3.88;;;1.40;;
65971;SDS011;52726;48.852;9.152;2022-12-24T06:55:19;5.13;;;1.92;;
65971;SDS011;52726;48.852;9.152;2022-12-24T06:57:44;4.82;;;1.13;;
65971;SDS011;52726;48.852;9.152;2022-12-24T07:00:10;7.28;;;1.35;;
65971;SDS011;52726;48.852;9.152;2022-12-24T07:02:40;11.10;;;1.48;;
65971;SDS011;52726;48.852;9.152;2022-12-24T07:07:36;7.53;;;1.30;;
65971;SDS011;52726;48.852;9.152;2022-12-24T07:10:02;4.97;;;1.10;;
65971;SDS011;52726;48.852;9.152;2022-12-24T07:12:28;7.85;;;1.58;;
65971;SDS011;52726;48.852;9.152;2022-12-24T07:14:53;13.20;;;1.55;;
65971;SDS011;52726;48.852;9.152;2022-12-24T07:17:18;9.75;;;1.48;;
65971;SDS011;52726;48.852;9.152;2022-12-24T07:19:44;7.78;;;1.90;;
65971;SDS011;52726;48.852;9.152;2022-12-24T07:22:09;5.07;;;1.20;;
65971;SDS011;52726;48.852;9.152;2022-12-24T07:24:34;8.68;;;1.63;;
65971;SDS011;52726;48.852;9.152;2022-12-24T07:27:00;9.50;;;1.67;;
65971;SDS011;52726;48.852;9.152;2022-12-24T07:29:25;2.92;;;1.20;;
65971;SDS011;52726;48.852;9.152;2022-12-24T07:31:50;7.40;;;1.40;;
65971;SDS011;52726;48.852;9.152;2022-12-24T07:34:16;7.90;;;1.90;;
65971;SDS011;52726;48.852;9.152;2022-12-24T07:36:41;5.78;;;1.27;;
65971;SDS011;52726;48.852;9.152;2022-12-24T07:39:07;6.20;;;1.50;;
65971;SDS011;52726;48.852;9.152;2022-12-24T07:41:32;6.47;;;1.52;;
65971;SDS011;52726;48.852;9.152;2022-12-24T07:43:57;3.72;;;1.50;;
65971;SDS011;52726;48.852;9.152;2022-12-24T07:46:23;8.18;;;1.50;;
65971;SDS011;52726;48.852;9.152;2022-12-24T07:48:48;2.30;;;1.30;;
65971;SDS011;52726;48.852;9.152;2022-12-24T07:51:13;3.65;;;1.25;;
65971;SDS011;52726;48.852;9.152;2022-12-24T07:53:39;5.43;;;1.60;;
65971;SDS011;52726;48.852;9.152;2022-12-24T07:58:36;6.22;;;1.48;;
65971;SDS011;52726;48.852;9.152;2022-12-24T08:01:01;7.75;;;1.30;;
65971;SDS011;52726;48.852;9.152;2022-12-24T08:03:27;7.45;;;1.63;;
65971;SDS011;52726;48.852;9.152;2022-12-24T08:05:52;9.73;;;2.08;;
65971;SDS011;52726;48.852;9.152;2022-12-24T08:08:18;13.68;;;2.05;;
65971;SDS011;52726;48.852;9.152;2022-12-24T08:10:44;6.72;;;1.92;;
65971;SDS011;52726;48.852;9.152;2022-12-24T08:13:10;4.03;;;1.60;;
65971;SDS011;52726;48.852;9.152;2022-12-24T08:15:35;11.23;;;3.30;;
65971;SDS011;52726;48.852;9.152;2022-12-24T08:18:01;11.20;;;2.65;;
65971;SDS011;52726;48.852;9.152;2022-12-24T08:20:26;8.15;;;1.80;;
65971;SDS011;52726;48.852;9.152;2022-12-24T08:22:52;6.55;;;1.48;;
65971;SDS011;52726;48.852;9.152;2022-12-24T08:25:17;6.25;;;2.30;;
65971;SDS011;52726;48.852;9.152;2022-12-24T08:27:44;13.13;;;2.53;;
65971;SDS011;52726;48.852;9.152;2022-12-24T08:30:09;8.50;;;2.17;;
65971;SDS011;52726;48.852;9.152;2022-12-24T08:32:35;4.88;;;1.55;;
65971;SDS011;52726;48.852;9.152;2022-12-24T08:35:01;2.22;;;1.17;;
65971;SDS011;52726;48.852;9.152;2022-12-24T08:37:26;6.90;;;2.08;;
65971;SDS011;52726;48.852;9.152;2022-12-24T08:39:51;4.43;;;1.48;;
65971;SDS011;52726;48.852;9.152;2022-12-24T08:42:17;5.18;;;1.67;;
65971;SDS011;52726;48.852;9.152;2022-12-24T08:44:42;5.00;;;1.02;;
65971;SDS011;52726;48.852;9.152;2022-12-24T08:47:07;3.60;;;1.38;;
65971;SDS011;52726;48.852;9.152;2022-12-24T08:49:33;8.43;;;1.70;;
65971;SDS011;52726;48.852;9.152;2022-12-24T08:51:58;11.00;;;1.90;;
65971;SDS011;52726;48.852;9.152;2022-12-24T08:54:24;4.95;;;1.52;;
65971;SDS011;52726;48.852;9.152;2022-12-24T08:56:49;6.78;;;1.42;;
65971;SDS011;52726;48.852;9.152;2022-12-24T08:59:15;4.25;;;1.35;;
65971;SDS011;52726;48.852;9.152;2022-12-24T09:01:41;5.20;;;1.35;;
65971;SDS011;52726;48.852;9.152;2022-12-24T09:04:06;7.22;;;1.70;;
65971;SDS011;52726;48.852;9.152;2022-12-24T09:06:32;5.53;;;1.77;;
65971;SDS011;52726;48.852;9.152;2022-12-24T09:08:57;7.90;;;1.40;;
65971;SDS011;52726;48.852;9.152;2022-12-24T09:11:23;3.75;;;1.30;;
65971;SDS011;52726;48.852;9.152;2022-12-24T09:13:48;7.68;;;2.28;;
65971;SDS011;52726;48.852;9.152;2022-12-24T09:16:14;6.00;;;2.15;;
65971;SDS011;52726;48.852;9.152;2022-12-24T09:18:39;6.78;;;1.98;;
65971;SDS011;52726;48.852;9.152;2022-12-24T09:21:10;4.50;;;1.90;;
65971;SDS011;52726;48.852;9.152;2022-12-24T09:23:40;4.38;;;1.42;;
65971;SDS011;52726;48.852;9.152;2022-12-24T09:26:20;9.23;;;2.45;;
65971;SDS011;52726;48.852;9.152;2022-12-24T09:28:48;4.75;;;1.75;;
65971;SDS011;52726;48.852;9.152;2022-12-24T09:31:14;4.78;;;2.00;;
65971;SDS011;52726;48.852;9.152;2022-12-24T09:33:40;10.65;;;2.42;;
65971;SDS011;52726;48.852;9.152;2022-12-24T09:36:06;5.80;;;2.20;;
65971;SDS011;52726;48.852;9.152;2022-12-24T09:38:33;8.20;;;1.83;;
65971;SDS011;52726;48.852;9.152;2022-12-24T09:40:59;3.90;;;1.52;;
65971;SDS011;52726;48.852;9.152;2022-12-24T09:43:26;5.47;;;1.83;;
65971;SDS011;52726;48.852;9.152;2022-12-24T09:48:30;10.63;;;2.50;;
65971;SDS011;52726;48.852;9.152;2022-12-24T09:53:35;7.50;;;1.98;;
65971;SDS011;52726;48.852;9.152;2022-12-24T09:56:11;9.90;;;1.77;;
65971;SDS011;52726;48.852;9.152;2022-12-24T09:58:40;9.65;;;1.80;;
65971;SDS011;52726;48.852;9.152;2022-12-24T10:01:11;6.57;;;1.70;;
65971;SDS011;52726;48.852;9.152;2022-12-24T10:03:37;8.02;;;2.03;;
65971;SDS011;52726;48.852;9.152;2022-12-24T10:11:26;9.07;;;1.67;;
65971;SDS011;52726;48.852;9.152;2022-12-24T10:19:47;5.35;;;1.70;;
65971;SDS011;52726;48.852;9.152;2022-12-24T10:22:22;8.00;;;1.73;;
65971;SDS011;52726;48.852;9.152;2022-12-24T10:27:43;6.78;;;1.40;;
65971;SDS011;52726;48.852;9.152;2022-12-24T10:30:17;10.50;;;2.25;;
65971;SDS011;52726;48.852;9.152;2022-12-24T10:32:46;10.20;;;1.75;;
65971;SDS011;52726;48.852;9.152;2022-12-24T10:37:38;9.48;;;1.58;;
65971;SDS011;52726;48.852;9.152;2022-12-24T10:40:05;7.57;;;1.70;;
65971;SDS011;52726;48.852;9.152;2022-12-24T10:42:37;11.68;;;1.90;;
65971;SDS011;52726;48.852;9.152;2022-12-24T10:45:12;8.15;;;2.00;;
65971;SDS011;52726;48.852;9.152;2022-12-24T10:47:40;5.80;;;1.58;;
65971;SDS011;52726;48.852;9.152;2022-12-24T10:50:12;15.15;;;2.42;;
65971;SDS011;52726;48.852;9.152;2022-12-24T10:52:43;8.95;;;1.77;;
65971;SDS011;52726;48.852;9.152;2022-12-24T10:55:21;8.52;;;1.80;;
65971;SDS011;52726;48.852;9.152;2022-12-24T10:58:01;15.20;;;2.42;;
65971;SDS011;52726;48.852;9.152;2022-12-24T11:00:30;5.93;;;1.70;;
65971;SDS011;52726;48.852;9.152;2022-12-24T11:05:36;6.70;;;2.03;;
65971;SDS011;52726;48.852;9.152;2022-12-24T11:10:41;7.00;;;1.67;;
65971;SDS011;52726;48.852;9.152;2022-12-24T11:13:24;12.88;;;1.90;;
65971;SDS011;52726;48.852;9.152;2022-12-24T11:15:58;10.07;;;1.63;;
65971;SDS011;52726;48.852;9.152;2022-12-24T11:18:30;10.18;;;1.80;;
65971;SDS011;52726;48.852;9.152;2022-12-24T11:20:58;2.90;;;1.27;;
65971;SDS011;52726;48.852;9.152;2022-12-24T11:23:25;9.18;;;1.60;;
65971;SDS011;52726;48.852;9.152;2022-12-24T11:25:51;7.72;;;1.63;;
65971;SDS011;52726;48.852;9.152;2022-12-24T11:28:21;7.35;;;1.90;;
65971;SDS011;52726;48.852;9.152;2022-12-24T11:31:00;8.43;;;2.10;;
65971;SDS011;52726;48.852;9.152;2022-12-24T11:33:49;11.50;;;2.10;;
65971;SDS011;52726;48.852;9.152;2022-12-24T11:36:18;5.20;;;1.60;;
65971;SDS011;52726;48.852;9.152;2022-12-24T11:38:53;7.30;;;1.83;;
65971;SDS011;52726;48.852;9.152;2022-12-24T11:41:21;7.18;;;1.75;;
65971;SDS011;52726;48.852;9.152;2022-12-24T11:43:56;4.82;;;1.63;;
65971;SDS011;52726;48.852;9.152;2022-12-24T11:49:03;6.47;;;1.90;;
65971;SDS011;52726;48.852;9.152;2022-12-24T11:57:29;11.02;;;2.47;;
65971;SDS011;52726;48.852;9.152;2022-12-24T12:00:02;11.73;;;2.00;;
65971;SDS011;52726;48.852;9.152;2022-12-24T12:02:30;7.75;;;2.00;;
65971;SDS011;52726;48.852;9.152;2022-12-24T12:05:08;6.97;;;1.83;;
65971;SDS011;52726;48.852;9.152;2022-12-24T12:07:40;8.32;;;2.10;;
65971;SDS011;52726;48.852;9.152;2022-12-24T12:10:14;10.10;;;1.95;;
65971;SDS011;52726;48.852;9.152;2022-12-24T12:12:44;3.80;;;1.65;;
65971;SDS011;52726;48.852;9.152;2022-12-24T12:15:22;13.45;;;2.85;;
65971;SDS011;52726;48.852;9.152;2022-12-24T12:17:53;8.23;;;2.65;;
65971;SDS011;52726;48.852;9.152;2022-12-24T12:20:29;9.35;;;2.00;;
65971;SDS011;52726;48.852;9.152;2022-12-24T12:25:51;12.48;;;2.70;;
65971;SDS011;52726;48.852;9.152;2022-12-24T12:28:22;7.72;;;2.00;;
65971;SDS011;52726;48.852;9.152;2022-12-24T12:30:55;9.13;;;2.22;;
65971;SDS011;52726;48.852;9.152;2022-12-24T12:33:41;12.32;;;2.45;;
65971;SDS011;52726;48.852;9.152;2022-12-24T12:36:12;8.38;;;2.10;;
65971;SDS011;52726;48.852;9.152;2022-12-24T12:38:42;10.95;;;2.30;;
65971;SDS011;52726;48.852;9.152;2022-12-24T12:58:13;12.10;;;2.45;;
65971;SDS011;52726;48.852;9.152;2022-12-24T13:00:49;10.63;;;2.15;;
65971;SDS011;52726;48.852;9.152;2022-12-24T13:11:05;13.93;;;3.30;;
65971;SDS011;52726;48.852;9.152;2022-12-24T13:22:21;12.75;;;1.98;;
65971;SDS011;52726;48.852;9.152;2022-12-24T13:24:48;8.55;;;2.15;;
65971;SDS011;52726;48.852;9.152;2022-12-24T13:27:25;6.47;;;2.00;;
65971;SDS011;52726;48.852;9.152;2022-12-24T13:34:57;8.00;;;1.83;;
65971;SDS011;52726;48.852;9.152;2022-12-24T13:42:54;8.55;;;2.53;;
65971;SDS011;52726;48.852;9.152;2022-12-24T13:50:35;8.32;;;2.08;;
65971;SDS011;52726;48.852;9.152;2022-12-24T13:53:04;8.65;;;2.08;;
65971;SDS011;52726;48.852;9.152;2022-12-24T13:55:31;9.80;;;2.90;;
65971;SDS011;52726;48.852;9.152;2022-12-24T13:57:58;5.70;;;1.70;;
65971;SDS011;52726;48.852;9.152;2022-12-24T14:00:26;9.70;;;2.15;;
65971;SDS011;52726;48.852;9.152;2022-12-24T14:02:56;13.27;;;2.38;;
65971;SDS011;52726;48.852;9.152;2022-12-24T14:05:43;6.65;;;1.73;;
65971;SDS011;52726;48.852;9.152;2022-12-24T14:08:34;11.90;;;1.88;;
65971;SDS011;52726;48.852;9.152;2022-12-24T14:18:29;5.15;;;2.15;;
65971;SDS011;52726;48.852;9.152;2022-12-24T14:20:58;10.18;;;2.70;;
65971;SDS011;52726;48.852;9.152;2022-12-24T14:26:17;9.82;;;2.72;;
65971;SDS011;52726;48.852;9.152;2022-12-24T14:28:47;14.35;;;2.67;;
65971;SDS011;52726;48.852;9.152;2022-12-24T14:31:35;9.55;;;2.50;;
65971;SDS011;52726;48.852;9.152;2022-12-24T14:34:05;8.05;;;2.40;;
65971;SDS011;52726;48.852;9.152;2022-12-24T14:36:37;17.45;;;3.00;;
65971;SDS011;52726;48.852;9.152;2022-12-24T14:39:04;18.63;;;3.03;;
65971;SDS011;52726;48.852;9.152;2022-12-24T14:41:44;9.02;;;3.42;;
65971;SDS011;52726;48.852;9.152;2022-12-24T14:44:19;9.63;;;3.00;;
65971;SDS011;52726;48.852;9.152;2022-12-24T14:49:41;14.57;;;2.97;;
65971;SDS011;52726;48.852;9.152;2022-12-24T14:54:43;19.08;;;3.03;;
65971;SDS011;52726;48.852;9.152;2022-12-24T14:59:55;11.90;;;2.50;;
65971;SDS011;52726;48.852;9.152;2022-12-24T15:02:28;10.65;;;2.95;;
65971;SDS011;52726;48.852;9.152;2022-12-24T15:05:08;11.35;;;2.60;;
65971;SDS011;52726;48.852;9.152;2022-12-24T15:07:36;8.07;;;2.42;;
65971;SDS011;52726;48.852;9.152;2022-12-24T15:10:07;7.13;;;2.22;;
65971;SDS011;52726;48.852;9.152;2022-12-24T15:12:51;15.10;;;2.72;;
65971;SDS011;52726;48.852;9.152;2022-12-24T15:15:18;7.35;;;3.25;;
65971;SDS011;52726;48.852;9.152;2022-12-24T15:17:44;11.25;;;3.08;;
65971;SDS011;52726;48.852;9.152;2022-12-24T15:20:13;19.13;;;3.17;;
65971;SDS011;52726;48.852;9.152;2022-12-24T15:22:45;5.72;;;2.47;;
65971;SDS011;52726;48.852;9.152;2022-12-24T15:25:22;16.90;;;2.70;;
65971;SDS011;52726;48.852;9.152;2022-12-24T15:27:52;14.50;;;2.70;;
65971;SDS011;52726;48.852;9.152;2022-12-24T15:30:19;9.18;;;3.08;;
65971;SDS011;52726;48.852;9.152;2022-12-24T15:32:48;12.30;;;2.70;;
65971;SDS011;52726;48.852;9.152;2022-12-24T15:38:31;8.25;;;4.13;;
65971;SDS011;52726;48.852;9.152;2022-12-24T15:41:04;6.50;;;2.30;;
65971;SDS011;52726;48.852;9.152;2022-12-24T15:43:32;12.50;;;2.45;;
65971;SDS011;52726;48.852;9.152;2022-12-24T15:45:57;9.82;;;2.47;;
65971;SDS011;52726;48.852;9.152;2022-12-24T15:48:28;10.27;;;2.40;;
65971;SDS011;52726;48.852;9.152;2022-12-24T15:50:58;12.38;;;2.67;;
65971;SDS011;52726;48.852;9.152;2022-12-24T15:58:39;12.35;;;2.83;;
65971;SDS011;52726;48.852;9.152;2022-12-24T16:03:53;6.45;;;2.45;;
65971;SDS011;52726;48.852;9.152;2022-12-24T16:06:20;8.65;;;2.72;;
65971;SDS011;52726;48.852;9.152;2022-12-24T16:08:47;6.70;;;2.30;;
65971;SDS011;52726;48.852;9.152;2022-12-24T16:11:25;9.07;;;3.28;;
65971;SDS011;52726;48.852;9.152;2022-12-24T16:14:12;9.52;;;2.88;;
65971;SDS011;52726;48.852;9.152;2022-12-24T16:16:42;8.85;;;3.13;;
65971;SDS011;52726;48.852;9.152;2022-12-24T16:22:02;14.63;;;3.20;;
65971;SDS011;52726;48.852;9.152;2022-12-24T16:24:48;7.63;;;2.55;;
65971;SDS011;52726;48.852;9.152;2022-12-24T16:27:13;6.30;;;2.17;;
65971;SDS011;52726;48.852;9.152;2022-12-24T16:29:39;11.38;;;3.63;;
65971;SDS011;52726;48.852;9.152;2022-12-24T16:32:04;19.20;;;3.55;;
65971;SDS011;52726;48.852;9.152;2022-12-24T16:34:30;12.85;;;3.17;;
65971;SDS011;52726;48.852;9.152;2022-12-24T16:36:56;7.20;;;2.45;;
65971;SDS011;52726;48.852;9.152;2022-12-24T16:41:51;19.75;;;2.75;;
65971;SDS011;52726;48.852;9.152;2022-12-24T16:44:36;17.25;;;3.42;;
65971;SDS011;52726;48.852;9.152;2022-12-24T16:47:03;9.48;;;3.42;;
65971;SDS011;52726;48.852;9.152;2022-12-24T16:49:30;7.78;;;2.95;;
65971;SDS011;52726;48.852;9.152;2022-12-24T16:51:55;13.40;;;2.92;;
65971;SDS011;52726;48.852;9.152;2022-12-24T16:54:21;7.97;;;3.00;;
65971;SDS011;52726;48.852;9.152;2022-12-24T16:56:46;6.07;;;3.13;;
65971;SDS011;52726;48.852;9.152;2022-12-24T16:59:15;13.23;;;4.00;;
65971;SDS011;52726;48.852;9.152;2022-12-24T17:01:46;8.85;;;3.20;;
65971;SDS011;52726;48.852;9.152;2022-12-24T17:04:12;7.82;;;2.92;;
65971;SDS011;52726;48.852;9.152;2022-12-24T17:06:38;10.05;;;4.10;;
65971;SDS011;52726;48.852;9.152;2022-12-24T17:09:04;6.45;;;3.15;;
65971;SDS011;52726;48.852;9.152;2022-12-24T17:11:30;8.52;;;3.22;;
65971;SDS011;52726;48.852;9.152;2022-12-24T17:13:56;16.95;;;3.67;;
65971;SDS011;52726;48.852;9.152;2022-12-24T17:16:21;11.80;;;3.35;;
65971;SDS011;52726;48.852;9.152;2022-12-24T17:18:47;15.95;;;3.83;;
65971;SDS011;52726;48.852;9.152;2022-12-24T17:21:14;15.60;;;4.20;;
65971;SDS011;52726;48.852;9.152;2022-12-24T17:23:41;13.50;;;3.28;;